Latest Weather Observations for Cunderdin Airport

IDW60801

Issued at 5:04 pm WST Tuesday 26 January 2021 (issued every 10 minutes, with the page automatically refreshed every 10 minutes)

About weather observations | Map of weather stations | Latest weather observations for WA | Other Formats
Station Details ID: 010286 Name: CUNDERDIN AIRFIELD Lat: -31.62 Lon: 117.22 Height: 216.7 m
Data from the previous 72 hours. | See also: Recent months at Cunderdin Airport
Date/Time
WST
Temp
°C
App
Temp
°C
Dew
Point
°C
Rel
Hum
%
Delta-T
°C
Wind Press
QNH
hPa
Press
MSL
hPa
Rain since
9am
mm
Dir  Spd
km/h
Gust
km/h
Spd
kts
Gust
kts
26/05:00pm 30.2 24.6 5.5 21 13.1 WSW 24 37 13 20 1004.6 1003.4 0.0
26/04:30pm 31.4 25.2 4.2 18 14.2 W 26 35 14 19 1004.8 1003.5 0.0
26/04:00pm 30.3 25.1 3.4 18 13.8 W 20 33 11 18 1005.0 1003.7 0.0
26/03:30pm 31.3 25.2 2.5 16 14.6 W 24 37 13 20 1005.0 1003.7 0.0
26/03:00pm 30.6 25.2 4.4 19 13.7 WSW 22 32 12 17 1004.9 1003.6 0.0
26/02:30pm 31.7 26.7 4.5 18 14.3 WSW 20 30 11 16 1004.9 1003.6 0.0
26/02:00pm 31.9 26.8 6.2 20 14.0 WSW 22 41 12 22 1005.3 1004.0 0.0
26/01:30pm 30.7 26.1 6.6 22 13.1 W 20 35 11 19 1005.6 1004.3 0.0
26/01:00pm 29.9 26.2 7.8 25 12.2 WSW 17 32 9 17 1005.9 1004.6 0.0
26/12:30pm 28.6 25.6 7.8 27 11.4 W 13 26 7 14 1006.4 1005.1 0.0
26/12:00pm 29.4 26.2 8.5 27 11.6 WSW 15 24 8 13 1006.8 1005.6 0.0
26/11:30am 27.9 25.7 9.2 31 10.4 WNW 11 20 6 11 1007.1 1005.9 0.0
26/11:00am 27.5 26.0 9.3 32 10.2 WSW 7 17 4 9 1007.3 1006.1 0.0
26/10:30am 25.3 24.0 9.2 36 8.9 NNE 6 13 3 7 1007.8 1006.6 0.0
26/10:00am 25.1 23.7 9.4 37 8.7 W 7 20 4 11 1008.3 1007.1 0.0
26/09:30am 23.7 22.0 9.7 41 7.7 ENE 9 15 5 8 1008.7 1007.5 0.0
26/09:00am 22.7 21.4 9.8 44 7.1 ESE 7 15 4 8 1008.8 1007.6 0.0
26/08:30am 21.4 18.9 9.6 47 6.4 E 13 22 7 12 1009.1 1007.9 0.0
26/08:00am 20.2 17.8 10.0 52 5.5 E 13 19 7 10 1009.3 1008.1 0.0
26/07:30am 18.7 16.6 9.8 56 4.8 SE 11 15 6 8 1009.4 1008.2 0.0
26/07:00am 17.7 15.3 10.1 61 4.1 SE 13 19 7 10 1009.3 1008.1 0.0
26/06:30am 17.0 15.4 10.1 64 3.7 ESE 9 15 5 8 1008.9 1007.7 0.0
26/06:00am 15.9 13.9 10.2 69 3.0 SE 11 15 6 8 1008.6 1007.4 0.0
26/05:30am 15.5 13.1 10.1 70 2.9 SE 13 17 7 9 1008.5 1007.3 0.0
26/05:00am 15.8 13.0 10.1 69 3.0 SE 15 19 8 10 1008.3 1007.1 0.0
26/04:30am 16.0 12.8 9.9 67 3.2 SE 17 22 9 12 1008.1 1006.9 0.0
26/04:00am 16.3 13.5 9.9 66 3.4 SE 15 17 8 9 1008.1 1006.9 0.0
26/03:30am 16.9 14.2 10.3 65 3.5 SE 15 19 8 10 1008.0 1006.8 0.0
26/03:00am 17.2 14.5 10.3 64 3.7 SE 15 20 8 11 1008.1 1006.9 0.0
26/02:30am 17.5 14.8 10.4 63 3.8 SE 15 20 8 11 1008.2 1007.0 0.0
26/02:00am 18.0 15.7 10.4 61 4.1 ESE 13 20 7 11 1008.2 1007.0 0.0
26/01:30am 18.5 15.7 10.1 58 4.5 ESE 15 20 8 11 1008.2 1007.0 0.0
26/01:00am 18.9 15.8 10.2 57 4.7 SE 17 22 9 12 1008.3 1007.1 0.0
26/12:30am 19.7 16.0 10.1 54 5.2 SE 20 28 11 15 1008.3 1007.1 0.0
26/12:00am 20.3 17.0 9.5 50 5.8 SE 17 24 9 13 1008.4 1007.2 0.0
 
Date/Time
WST
Temp
°C
App
Temp
°C
Dew
Point
°C
Rel
Hum
%
Delta-T
°C
Wind Press
QNH
hPa
Press
MSL
hPa
Rain since
9am
mm
Dir  Spd
km/h
Gust
km/h
Spd
kts
Gust
kts
25/11:30pm 19.7 16.0 9.3 51 5.6 SW 19 24 10 13 1008.2 1007.0 0.0
25/11:00pm 20.4 16.5 8.7 47 6.2 SW 19 26 10 14 1008.4 1007.2 0.0
25/10:30pm 21.0 16.7 8.0 43 6.8 SW 20 28 11 15 1008.6 1007.4 0.0
25/10:00pm 21.8 17.2 8.3 42 7.2 SW 22 30 12 16 1008.5 1007.3 0.0
25/09:30pm 22.1 17.6 8.6 42 7.2 SW 22 30 12 16 1008.4 1007.2 0.0
25/09:00pm 23.0 17.4 8.7 40 7.7 SW 28 35 15 19 1008.2 1007.0 0.0
25/08:56pm 23.3 17.7 8.6 39 7.9 SW 28 35 15 19 1008.1 1006.9 0.0
25/08:30pm 24.0 21.6 5.4 30 9.5 SSE 7 9 4 5 1007.7 1006.5 0.0
25/08:00pm 24.4 22.0 5.2 29 9.8 S 7 9 4 5 1007.4 1006.2 0.0
25/07:30pm 24.9 21.7 5.2 28 10.1 SSW 11 13 6 7 1007.4 1006.2 0.0
25/07:00pm 26.6 24.1 5.0 25 11.1 S 7 9 4 5 1007.2 1006.0 0.0
25/06:30pm 28.0 25.3 5.6 24 11.8 SSW 9 13 5 7 1007.1 1005.9 0.0
25/06:00pm 28.5 24.6 5.4 23 12.1 SW 15 24 8 13 1006.9 1005.7 0.0
25/05:30pm 28.2 26.5 5.7 24 11.8 ESE 4 11 2 6 1006.8 1005.6 0.0
25/05:00pm 29.1 27.8 5.9 23 12.3 SSW 2 7 1 4 1006.8 1005.6 0.0
25/04:30pm 28.1 25.8 5.6 24 11.8 SW 7 13 4 7 1007.0 1005.8 0.0
25/04:00pm 29.1 26.1 5.9 23 12.3 SW 11 20 6 11 1007.1 1005.9 0.0
25/03:30pm 27.6 24.7 6.4 26 11.2 ESE 11 19 6 10 1007.4 1006.2 0.0
25/03:00pm 27.8 25.3 6.6 26 11.3 S 9 26 5 14 1007.7 1006.5 0.0
25/02:30pm 27.7 24.9 7.0 27 11.1 S 11 17 6 9 1008.0 1006.8 0.0
25/02:00pm 28.3 26.0 7.5 27 11.3 SE 9 19 5 10 1008.0 1006.8 0.0
25/01:30pm 28.7 26.7 7.3 26 11.6 SSW 7 13 4 7 1008.4 1007.2 0.0
25/01:00pm 28.3 26.2 8.1 28 11.1 SSW 9 20 5 11 1008.7 1007.5 0.0
25/12:30pm 27.7 25.0 9.0 31 10.4 S 13 28 7 15 1009.1 1007.9 0.0
25/12:00pm 25.6 23.6 8.6 34 9.3 ESE 9 17 5 9 1009.4 1008.2 0.0
25/11:30am 25.6 22.8 8.6 34 9.3 SE 13 20 7 11 1009.8 1008.5 0.0
25/11:00am 24.5 22.2 8.9 37 8.5 E 11 19 6 10 1010.1 1008.8 0.0
25/10:30am 24.3 21.6 9.1 38 8.3 SE 13 22 7 12 1010.5 1009.2 0.0
25/10:00am 24.1 21.2 9.7 40 7.9 ESE 15 20 8 11 1010.5 1009.2 0.0
25/09:30am 24.1 21.2 9.7 40 7.9 SE 15 22 8 12 1010.5 1009.2 0.0
25/09:00am 22.8 19.6 9.9 44 7.1 SE 17 24 9 13 1010.6 1009.3 0.0
25/08:30am 21.6 18.9 10.4 49 6.2 SE 15 22 8 12 1011.0 1009.8 0.0
25/08:00am 20.9 18.3 10.7 52 5.6 SE 15 24 8 13 1010.9 1009.7 0.0
25/07:30am 20.2 17.2 10.6 54 5.3 SE 17 26 9 14 1010.8 1009.5 0.0
25/07:00am 20.1 18.0 11.1 56 5.0 ESE 13 19 7 10 1010.8 1009.5 0.0
25/06:30am 19.4 17.2 10.9 58 4.7 ESE 13 20 7 11 1010.4 1009.1 0.0
25/06:00am 19.0 17.3 11.1 60 4.4 E 11 15 6 8 1010.1 1008.8 0.0
25/05:30am 18.6 16.8 10.9 61 4.2 E 11 17 6 9 1009.6 1008.3 0.0
25/05:00am 18.6 16.9 11.2 62 4.1 ESE 11 15 6 8 1009.3 1008.1 0.0
25/04:30am 18.6 16.9 11.2 62 4.1 ESE 11 19 6 10 1009.1 1007.9 0.0
25/04:00am 18.1 16.4 11.2 64 3.8 SSE 11 15 6 8 1008.7 1007.5 0.0
25/03:30am 17.2 14.2 10.6 65 3.6 SSW 17 20 9 11 1008.4 1007.2 0.0
25/03:00am 16.9 14.6 10.5 66 3.5 SW 13 17 7 9 1008.3 1007.1 0.0
25/02:30am 17.2 15.0 10.8 66 3.5 SW 13 17 7 9 1008.3 1007.1 0.0
25/02:00am 16.3 14.7 10.2 67 3.3 W 9 11 5 6 1008.3 1007.1 0.0
25/01:30am 17.7 14.7 10.6 63 3.8 SW 17 22 9 12 1008.3 1007.1 0.0
25/01:00am 18.1 15.1 10.5 61 4.1 WSW 17 20 9 11 1008.4 1007.2 0.0
25/12:30am 18.4 16.3 11.2 63 4.0 WSW 13 17 7 9 1008.5 1007.3 0.0
25/12:00am 18.4 16.3 11.0 62 4.1 WSW 13 17 7 9 1008.5 1007.3 0.0
 
Date/Time
WST
Temp
°C
App
Temp
°C
Dew
Point
°C
Rel
Hum
%
Delta-T
°C
Wind Press
QNH
hPa
Press
MSL
hPa
Rain since
9am
mm
Dir  Spd
km/h
Gust
km/h
Spd
kts
Gust
kts
24/11:30pm 19.1 16.5 10.6 58 4.6 WSW 15 20 8 11 1008.7 1007.5 0.0
24/11:00pm 19.6 16.5 10.3 55 5.1 WSW 17 20 9 11 1008.6 1007.4 0.0
24/10:30pm 20.0 16.8 10.1 53 5.4 WSW 17 20 9 11 1008.5 1007.3 0.0
24/10:00pm 20.6 17.4 10.1 51 5.7 WSW 17 20 9 11 1008.6 1007.4 0.0
24/09:30pm 21.3 17.8 10.2 49 6.1 WSW 19 24 10 13 1008.4 1007.2 0.0
24/09:00pm 21.9 18.0 9.4 45 6.8 WSW 20 24 11 13 1008.1 1006.9 0.0
24/08:30pm 22.6 17.6 9.4 43 7.2 W 26 32 14 17 1007.8 1006.6 0.0
24/08:00pm 23.2 18.2 9.6 42 7.5 WSW 26 33 14 18 1007.4 1006.2 0.0
24/07:30pm 24.0 18.1 9.2 39 8.1 W 30 39 16 21 1007.0 1005.8 0.0
24/07:00pm 25.1 18.8 9.0 36 8.8 W 32 39 17 21 1006.7 1005.5 0.0
24/06:30pm 26.4 20.7 9.7 35 9.3 W 30 37 16 20 1006.1 1004.8 0.0
24/06:00pm 27.2 21.4 9.5 33 9.9 WSW 30 37 16 20 1005.6 1004.3 0.0
24/05:30pm 28.0 22.5 9.3 31 10.4 WSW 28 39 15 21 1005.3 1004.0 0.0
24/05:00pm 29.1 23.0 9.8 30 11.0 WSW 32 41 17 22 1005.1 1003.8 0.0
24/04:30pm 29.0 23.7 9.7 30 10.9 W 28 43 15 23 1004.9 1003.6 0.0
24/04:01pm 30.2 24.9 8.6 26 12.1 W 26 46 14 25 1004.9 1003.6 0.0
24/04:00pm 30.0 24.6 7.8 25 12.3 W 26 46 14 25 1004.9 1003.6 0.0
24/03:30pm 30.2 24.2 8.6 26 12.1 W 30 44 16 24 1004.8 1003.5 0.0
24/03:00pm 31.4 25.6 7.8 23 13.1 SW 28 48 15 26 1004.9 1003.6 0.0
24/02:59pm 30.9 24.6 7.4 23 12.9 SW 30 48 16 26 1004.8 1003.5 0.0
24/02:30pm 30.1 24.9 7.3 24 12.5 W 24 37 13 20 1005.2 1003.9 0.0
24/02:00pm 30.2 24.9 8.6 26 12.1 WSW 26 43 14 23 1005.4 1004.1 0.0
24/01:30pm 29.8 24.5 9.9 29 11.3 WSW 28 43 15 23 1005.6 1004.3 0.0
24/01:00pm 29.1 25.2 9.3 29 11.2 WSW 20 39 11 21 1005.7 1004.4 0.0
24/12:30pm 29.3 25.1 9.9 30 11.0 WSW 22 33 12 18 1005.8 1004.5 0.0
24/12:00pm 30.3 25.5 10.3 29 11.5 WSW 26 43 14 23 1006.1 1004.8 0.0
24/11:30am 28.6 24.4 9.8 31 10.6 WSW 22 32 12 17 1006.3 1005.0 0.0
24/11:00am 27.1 21.8 9.9 34 9.7 SW 28 39 15 21 1006.5 1005.2 0.0
24/10:30am 27.4 23.1 10.6 35 9.6 SSW 24 37 13 20 1006.7 1005.5 0.0
24/10:00am 25.5 20.8 10.5 39 8.5 SSW 26 41 14 22 1006.9 1005.7 0.0
24/09:30am 26.2 21.6 11.2 39 8.6 SSW 26 39 14 21 1007.1 1005.9 0.0
24/09:00am 24.2 18.8 10.8 43 7.6 SW 30 39 16 21 1007.1 1005.9 0.0
24/08:30am 22.9 18.4 11.3 48 6.5 SSW 26 33 14 18 1007.2 1006.0 0.0
24/08:00am 22.2 19.4 12.7 55 5.5 SW 19 26 10 14 1007.2 1006.0 0.0
24/07:30am 20.4 17.9 12.4 60 4.5 SW 17 22 9 12 1007.2 1006.0 0.0
24/07:00am 19.4 17.0 12.7 65 3.8 SW 17 22 9 12 1007.0 1005.8 0.0
24/06:30am 18.2 15.9 12.9 71 3.0 WSW 17 20 9 11 1006.9 1005.7 0.0
24/06:00am 17.2 16.0 12.9 76 2.4 WSW 11 15 6 8 1006.7 1005.5 0.0
24/05:30am 16.6 14.9 12.6 77 2.2 W 13 15 7 8 1006.5 1005.2 0.0
24/05:00am 16.3 14.6 12.5 78 2.1 W 13 15 7 8 1006.1 1004.8 0.0
24/04:30am 16.6 14.5 12.4 76 2.3 W 15 19 8 10 1005.7 1004.4 0.0
24/04:00am 16.6 14.2 12.6 77 2.2 W 17 20 9 11 1005.8 1004.5 0.0
24/03:30am 16.9 15.2 12.6 76 2.4 W 13 17 7 9 1005.5 1004.2 0.0
24/03:00am 17.2 15.2 12.7 75 2.5 WSW 15 19 8 10 1005.4 1004.1 0.0
24/02:30am 17.4 15.8 12.9 75 2.5 SSW 13 17 7 9 1005.6 1004.3 0.0
24/02:00am 17.6 16.1 13.1 75 2.6 S 13 17 7 9 1005.6 1004.3 0.0
24/01:30am 18.3 14.8 13.4 73 2.8 SW 24 32 13 17 1005.2 1003.9 0.0
24/01:00am 18.6 16.0 13.7 73 2.8 WSW 20 26 11 14 1005.5 1004.2 0.0
24/12:30am 19.0 15.6 13.8 72 3.0 WSW 24 30 13 16 1005.1 1003.8 0.0
24/12:00am 19.3 16.0 14.1 72 3.0 WSW 24 32 13 17 1005.2 1003.9 0.0
 
Date/Time
WST
Temp
°C
App
Temp
°C
Dew
Point
°C
Rel
Hum
%
Delta-T
°C
Wind Press
QNH
hPa
Press
MSL
hPa
Rain since
9am
mm
Dir  Spd
km/h
Gust
km/h
Spd
kts
Gust
kts
23/11:30pm 19.4 15.9 14.4 73 2.9 WSW 26 32 14 17 1005.1 1003.8 0.0
23/11:00pm 19.9 15.1 14.7 72 3.1 W 33 44 18 24 1005.1 1003.8 0.0
23/10:30pm 20.5 15.8 14.8 70 3.4 W 33 41 18 22 1004.9 1003.6 0.0
23/10:00pm 21.6 17.1 15.0 66 4.0 W 32 39 17 21 1004.9 1003.6 0.0
23/09:30pm 22.8 18.3 14.9 61 4.7 WSW 32 39 17 21 1004.9 1003.6 0.0
23/09:00pm 23.7 19.4 14.4 56 5.6 WSW 30 43 16 23 1004.5 1003.3 0.0
23/08:30pm 25.1 20.3 13.9 49 6.7 W 32 41 17 22 1004.2 1003.0 0.0
23/08:00pm 26.9 22.5 12.9 42 8.3 W 28 35 15 19 1003.5 1002.3 0.0
23/07:30pm 28.0 24.3 12.8 39 9.0 W 24 32 13 17 1002.9 1001.7 0.0
23/07:00pm 29.5 24.9 12.4 35 10.2 WSW 28 35 15 19 1002.5 1001.2 0.0
23/06:30pm 31.3 26.4 12.6 31 11.2 WSW 30 37 16 20 1002.0 1000.7 0.0
23/06:00pm 32.5 26.9 12.2 29 12.2 W 33 43 18 23 1001.3 1000.0 0.0
23/05:30pm 33.7 28.1 12.1 27 12.9 W 33 43 18 23 1000.7 999.4 0.0

Other formats

Comma delimited format used in spreadsheet applications
http://www.bom.gov.au/fwo/IDW60801/IDW60801.95625.axf

JavaScript Object Notation format (JSON) in row-major order
http://www.bom.gov.au/fwo/IDW60801/IDW60801.95625.json

Data quality

Most of these data are generated automatically and are frequently updated. Quality checks on data are not normally performed. It is possible for incorrect values to appear. Refer to information at About Latest Weather Observations and please check the disclaimer before using these data.